Time;durP1;ratioP1;P1;durP2;ratioP2;P2;SDS_P1;SDS_P2;PMS_P1;PMS_P2;Temp;Humidity;BMP_temperature;BMP_pressure;BME280_temperature;BME280_humidity;BME280_pressure;Samples;Min_cycle;Max_cycle;Signal;HPM_P1;HPM_P2
2022/03/25 06:37:21;;;;;;;9.48;7.40;;;9.60;55.40;;;;;;5751128;22;20251;-65
2022/03/25 06:39:48;;;;;;;8.18;6.97;;;10.60;47.50;;;;;;5053396;28;20209;-66
2022/03/25 06:42:15;;;;;;;8.23;7.40;;;10.70;41.00;;;;;;5053573;28;20544;-65
2022/03/25 06:44:42;;;;;;;8.80;6.95;;;10.70;41.00;;;;;;5053500;28;20280;-65
2022/03/25 06:47:09;;;;;;;8.30;7.50;;;10.70;41.30;;;;;;5054162;28;20262;-65
2022/03/25 06:49:36;;;;;;;8.05;7.25;;;11.00;41.30;;;;;;5057872;28;20200;-66
2022/03/25 06:52:04;;;;;;;7.30;6.40;;;11.80;41.80;;;;;;5057743;28;20204;-66
2022/03/25 06:54:33;;;;;;;6.53;5.93;;;13.00;37.70;;;;;;5057529;28;20200;-67
2022/03/25 06:57:01;;;;;;;9.45;7.40;;;14.00;34.20;;;;;;5056967;28;20312;-67
2022/03/25 06:59:28;;;;;;;8.13;7.32;;;14.80;33.00;;;;;;5057449;28;20204;-67
2022/03/25 07:01:55;;;;;;;8.43;6.43;;;15.40;30.00;;;;;;5057259;28;20701;-66
2022/03/25 07:04:23;;;;;;;7.22;6.53;;;16.10;29.40;;;;;;5057356;28;20283;-67
2022/03/25 07:06:51;;;;;;;7.28;6.55;;;16.50;28.10;;;;;;5057315;28;20224;-65
2022/03/25 07:09:19;;;;;;;6.75;6.15;;;17.00;27.80;;;;;;5057339;28;20211;-66
2022/03/25 07:11:49;;;;;;;8.45;7.60;;;17.50;26.20;;;;;;5057303;28;20222;-66
2022/03/25 07:14:16;;;;;;;8.25;7.18;;;18.10;26.50;;;;;;5057079;28;20591;-66
2022/03/25 07:16:43;;;;;;;8.05;7.30;;;19.00;24.70;;;;;;5057126;28;20196;-66
2022/03/25 07:19:10;;;;;;;10.38;8.50;;;19.60;23.20;;;;;;5056746;28;20200;-67
2022/03/25 07:21:37;;;;;;;8.57;7.55;;;20.20;21.90;;;;;;5057020;28;20208;-66
2022/03/25 07:24:04;;;;;;;8.65;7.18;;;20.70;17.10;;;;;;5057102;28;20659;-67
2022/03/25 07:26:31;;;;;;;7.40;6.65;;;21.10;16.60;;;;;;5057384;28;20196;-67
2022/03/25 07:29:00;;;;;;;8.82;7.72;;;21.50;16.20;;;;;;5058349;28;20294;-66
2022/03/25 07:31:28;;;;;;;8.52;7.13;;;21.60;16.20;;;;;;5057931;28;20654;-66
2022/03/25 07:33:55;;;;;;;7.07;6.43;;;21.70;15.60;;;;;;5058669;28;20314;-67
2022/03/25 07:36:22;;;;;;;6.57;6.07;;;21.90;15.50;;;;;;5058644;28;20267;-66
2022/03/25 07:38:49;;;;;;;7.95;7.03;;;21.80;15.10;;;;;;5056762;28;20655;-66
2022/03/25 07:41:15;;;;;;;11.13;8.38;;;21.80;15.20;;;;;;5056435;28;20609;-67
2022/03/25 07:43:43;;;;;;;9.25;7.57;;;21.90;14.80;;;;;;5056567;28;20196;-66
2022/03/25 07:46:11;;;;;;;9.85;7.65;;;22.30;15.30;;;;;;5056493;28;20287;-67
2022/03/25 07:48:38;;;;;;;10.02;8.40;;;22.80;14.40;;;;;;5056214;28;20299;-66
2022/03/25 07:51:05;;;;;;;6.93;6.22;;;23.10;14.30;;;;;;5056571;28;20224;-66
2022/03/25 07:53:32;;;;;;;8.60;6.05;;;23.30;14.20;;;;;;5056437;28;20220;-66
2022/03/25 07:55:59;;;;;;;7.28;5.75;;;23.70;14.10;;;;;;5056343;28;20200;-66
2022/03/25 07:58:27;;;;;;;6.32;5.78;;;23.80;14.20;;;;;;5056160;28;20247;-68
2022/03/25 08:00:54;;;;;;;7.43;5.93;;;24.10;13.90;;;;;;5056288;28;20202;-65
2022/03/25 08:03:22;;;;;;;6.72;6.13;;;24.10;14.40;;;;;;5056230;28;20181;-65
2022/03/25 08:05:50;;;;;;;6.43;5.80;;;24.20;14.10;;;;;;5055966;28;20247;-65
2022/03/25 08:08:19;;;;;;;7.18;6.45;;;24.30;17.50;;;;;;5056020;28;20259;-65
2022/03/25 08:10:47;;;;;;;8.23;6.68;;;24.40;18.60;;;;;;5055952;28;20258;-65
2022/03/25 08:13:15;;;;;;;6.90;6.25;;;24.50;19.50;;;;;;5055842;28;20212;-66
2022/03/25 08:15:43;;;;;;;9.63;8.63;;;24.90;18.60;;;;;;5055591;28;20616;-66
2022/03/25 08:18:11;;;;;;;11.63;10.48;;;25.20;18.60;;;;;;5056117;28;20227;-66
2022/03/25 08:20:41;;;;;;;14.25;10.10;;;25.50;17.60;;;;;;5055938;28;20206;-66
2022/03/25 08:23:11;;;;;;;11.88;9.48;;;25.40;17.80;;;;;;5055669;28;20185;-65
2022/03/25 08:28:23;;;;;;;12.32;9.38;;;25.60;17.70;;;;;;5055710;28;20215;-65
2022/03/25 08:30:50;;;;;;;12.57;10.40;;;25.50;17.40;;;;;;5055420;28;20219;-65
2022/03/25 08:33:17;;;;;;;14.70;10.70;;;24.90;17.80;;;;;;5055318;28;20681;-65
2022/03/25 08:35:47;;;;;;;11.52;9.85;;;23.90;17.70;;;;;;5055412;28;20200;-65
2022/03/25 08:38:15;;;;;;;11.48;9.30;;;23.00;18.10;;;;;;5055317;28;20238;-65
2022/03/25 08:40:42;;;;;;;11.20;9.50;;;21.80;19.10;;;;;;5055566;28;20196;-65
2022/03/25 08:43:09;;;;;;;13.93;10.30;;;20.50;19.20;;;;;;5055027;28;20199;-64
2022/03/25 08:45:36;;;;;;;10.35;9.23;;;19.10;21.20;;;;;;5054980;28;20200;-64
2022/03/25 08:48:04;;;;;;;17.05;11.05;;;18.00;22.30;;;;;;5055265;28;20349;-64
2022/03/25 08:50:31;;;;;;;13.15;9.50;;;16.90;23.50;;;;;;5055324;28;20266;-64
2022/03/25 08:52:59;;;;;;;10.95;8.18;;;16.20;24.20;;;;;;5055336;28;20295;-64
2022/03/25 08:55:26;;;;;;;9.60;7.60;;;15.60;25.00;;;;;;5055465;28;20201;-65
2022/03/25 08:57:53;;;;;;;13.80;8.80;;;15.20;25.70;;;;;;5055137;28;20231;-65
2022/03/25 09:00:20;;;;;;;11.32;7.88;;;14.90;26.20;;;;;;5054906;28;20207;-64
2022/03/25 09:02:48;;;;;;;8.95;7.38;;;14.70;26.20;;;;;;5054960;28;20193;-64
2022/03/25 09:05:16;;;;;;;8.40;6.95;;;14.50;26.70;;;;;;5054942;28;20208;-64
2022/03/25 09:07:43;;;;;;;9.05;7.25;;;14.40;26.80;;;;;;5054760;28;20236;-64
2022/03/25 09:10:14;;;;;;;11.57;7.93;;;14.40;27.30;;;;;;5054331;28;20196;-64
2022/03/25 09:12:42;;;;;;;8.35;7.20;;;14.50;27.40;;;;;;5054704;28;20185;-64
2022/03/25 09:15:12;;;;;;;13.70;10.35;;;14.50;26.80;;;;;;5054928;28;20228;-63
2022/03/25 09:17:40;;;;;;;14.20;10.27;;;14.50;26.50;;;;;;5055160;28;20220;-63
2022/03/25 09:20:08;;;;;;;14.52;10.48;;;14.40;25.60;;;;;;5054792;28;20196;-63
2022/03/25 09:22:36;;;;;;;11.90;9.85;;;14.40;26.50;;;;;;5054692;28;20291;-63
2022/03/25 09:25:04;;;;;;;12.88;9.52;;;14.30;26.20;;;;;;5054342;28;20200;-63
2022/03/25 09:27:32;;;;;;;12.38;9.18;;;14.40;25.80;;;;;;5054600;28;20260;-63
2022/03/25 09:29:59;;;;;;;10.95;8.10;;;14.50;26.00;;;;;;5055560;28;20593;-63
2022/03/25 09:32:27;;;;;;;8.18;7.15;;;14.60;26.10;;;;;;5054500;28;20243;-63
2022/03/25 09:35:13;;;;;;;8.98;8.07;;;14.70;25.70;;;;;;5054986;28;20228;-63
2022/03/25 09:37:42;;;;;;;12.55;9.00;;;14.90;25.80;;;;;;5054778;28;20247;-63
2022/03/25 09:40:12;;;;;;;10.23;7.93;;;15.00;24.90;;;;;;5054034;28;20204;-63
2022/03/25 09:42:41;;;;;;;9.75;8.05;;;15.10;24.70;;;;;;5054716;28;20197;-63
2022/03/25 09:45:10;;;;;;;11.07;9.13;;;15.10;23.90;;;;;;5054215;28;20235;-63
2022/03/25 09:47:37;;;;;;;13.55;9.82;;;15.10;24.10;;;;;;5053836;28;20782;-63
2022/03/25 09:50:07;;;;;;;8.88;7.88;;;15.20;24.30;;;;;;5054003;28;20287;-64
2022/03/25 09:52:34;;;;;;;15.60;10.65;;;15.30;24.00;;;;;;5054271;28;20315;-63
2022/03/25 09:55:02;;;;;;;12.07;10.48;;;15.30;23.60;;;;;;5053983;28;20252;-64
2022/03/25 09:57:31;;;;;;;15.85;10.93;;;15.30;23.50;;;;;;5057347;28;20220;-64
2022/03/25 10:00:00;;;;;;;18.15;11.98;;;15.30;23.70;;;;;;5057796;28;20204;-64
2022/03/25 10:02:28;;;;;;;14.45;10.73;;;15.30;24.00;;;;;;5057581;28;20204;-64
2022/03/25 10:04:56;;;;;;;11.27;9.05;;;15.30;23.80;;;;;;5057865;28;20219;-64
2022/03/25 10:07:25;;;;;;;16.10;11.50;;;15.40;23.80;;;;;;5058651;28;20236;-64
2022/03/25 10:10:07;;;;;;;13.40;10.63;;;15.50;23.50;;;;;;5058431;28;20205;-64
2022/03/25 10:12:35;;;;;;;10.77;9.43;;;15.50;23.40;;;;;;5057960;28;20181;-64
2022/03/25 10:15:16;;;;;;;13.43;10.18;;;15.50;23.50;;;;;;5056704;28;20809;-64
2022/03/25 10:17:52;;;;;;;14.40;10.85;;;15.60;24.10;;;;;;5056934;28;20719;-63
2022/03/25 10:20:21;;;;;;;13.45;10.63;;;15.60;23.40;;;;;;5055353;28;20283;-64
2022/03/25 10:23:09;;;;;;;16.58;11.68;;;15.60;23.50;;;;;;5055317;28;20244;-64
2022/03/25 10:25:41;;;;;;;16.25;12.02;;;15.70;23.30;;;;;;5058021;28;20612;-64
2022/03/25 10:28:26;;;;;;;19.58;13.45;;;15.70;22.80;;;;;;5056070;28;20221;-63
2022/03/25 10:30:57;;;;;;;19.38;11.73;;;15.70;22.80;;;;;;5052212;28;20208;-64
2022/03/25 10:33:27;;;;;;;15.57;11.07;;;15.70;23.50;;;;;;5053039;28;20259;-64
2022/03/25 10:36:00;;;;;;;15.80;11.80;;;15.70;23.20;;;;;;5053127;28;20200;-64
2022/03/25 10:38:28;;;;;;;14.70;11.57;;;15.80;23.70;;;;;;5053402;28;20607;-64
2022/03/25 10:40:57;;;;;;;13.13;10.13;;;15.80;22.80;;;;;;5053888;28;20592;-65
2022/03/25 10:43:25;;;;;;;13.30;10.32;;;15.90;22.60;;;;;;5054045;28;20197;-65
2022/03/25 10:45:54;;;;;;;11.60;8.05;;;16.00;22.30;;;;;;5054097;28;20263;-64
2022/03/25 10:48:24;;;;;;;9.48;8.02;;;16.10;22.70;;;;;;5054257;28;20232;-63
2022/03/25 10:51:05;;;;;;;10.45;8.85;;;16.20;22.60;;;;;;5053513;28;20209;-63
2022/03/25 10:53:33;;;;;;;10.68;9.05;;;16.30;21.90;;;;;;5053284;28;20291;-64
2022/03/25 10:56:03;;;;;;;13.60;10.75;;;16.30;21.80;;;;;;5053154;28;20247;-63
2022/03/25 10:58:30;;;;;;;14.05;11.30;;;16.30;21.80;;;;;;5053425;28;20274;-65
2022/03/25 11:01:00;;;;;;;13.18;9.80;;;16.20;21.30;;;;;;5053172;28;20204;-65
2022/03/25 11:03:27;;;;;;;18.63;11.77;;;16.20;21.60;;;;;;5053236;28;20181;-63
2022/03/25 11:05:54;;;;;;;13.35;10.52;;;16.20;21.60;;;;;;5053282;28;20287;-64
2022/03/25 11:08:22;;;;;;;13.98;10.82;;;16.10;21.80;;;;;;5053268;28;20255;-65
2022/03/25 11:10:49;;;;;;;11.95;9.73;;;16.10;21.20;;;;;;5052819;28;20671;-65
2022/03/25 11:13:18;;;;;;;17.13;11.70;;;16.10;21.20;;;;;;5053415;28;20189;-64
2022/03/25 11:15:46;;;;;;;12.23;10.15;;;16.00;20.80;;;;;;5053746;28;20247;-65
2022/03/25 11:18:14;;;;;;;14.52;10.25;;;15.90;20.90;;;;;;5053377;28;20220;-65
2022/03/25 11:20:41;;;;;;;10.00;9.00;;;15.90;21.10;;;;;;5053387;28;20201;-64
2022/03/25 11:23:13;;;;;;;12.98;10.07;;;15.90;21.60;;;;;;5052986;28;20211;-65
2022/03/25 11:25:44;;;;;;;16.17;10.93;;;15.90;21.50;;;;;;5053343;28;20616;-64
2022/03/25 11:28:17;;;;;;;13.93;10.57;;;15.90;21.10;;;;;;5053148;28;20246;-64
2022/03/25 11:30:44;;;;;;;10.68;8.55;;;15.90;21.50;;;;;;5052968;28;20185;-64
2022/03/25 11:33:11;;;;;;;9.82;8.35;;;16.00;22.00;;;;;;5053355;28;20720;-65
2022/03/25 11:35:41;;;;;;;8.48;7.35;;;16.00;21.20;;;;;;5056836;28;20316;-65
2022/03/25 11:38:19;;;;;;;10.18;7.80;;;16.10;21.40;;;;;;5056718;28;20235;-65
2022/03/25 11:40:47;;;;;;;7.63;6.93;;;16.10;21.80;;;;;;5056344;28;20181;-64
2022/03/25 11:43:16;;;;;;;7.40;6.70;;;16.20;22.00;;;;;;5056631;28;20232;-65
2022/03/25 11:45:44;;;;;;;9.20;7.07;;;16.20;22.00;;;;;;5056563;28;20562;-65
2022/03/25 11:48:47;;;;;;;10.82;8.93;;;16.20;20.80;;;;;;5056565;28;20221;-65
2022/03/25 11:51:36;;;;;;;15.10;10.85;;;16.20;20.50;;;;;;5057353;28;20232;-65
2022/03/25 11:54:36;;;;;;;13.50;10.00;;;16.20;20.20;;;;;;5056903;28;20205;-64
2022/03/25 11:57:05;;;;;;;11.73;9.27;;;16.10;19.80;;;;;;5056724;28;20225;-63
2022/03/25 11:59:48;;;;;;;10.98;8.55;;;16.10;19.70;;;;;;5056728;28;20207;-64
2022/03/25 12:02:30;;;;;;;10.73;8.50;;;16.00;19.60;;;;;;5057139;28;20204;-64
2022/03/25 12:04:58;;;;;;;13.25;9.65;;;16.00;20.20;;;;;;5056310;28;20190;-64
2022/03/25 12:07:26;;;;;;;14.38;9.75;;;16.00;21.10;;;;;;5056196;28;20224;-64
2022/03/25 12:09:53;;;;;;;13.10;10.68;;;16.10;20.60;;;;;;5056580;28;20222;-64
2022/03/25 12:12:41;;;;;;;12.77;9.75;;;16.10;20.50;;;;;;5057009;28;20197;-64
2022/03/25 12:15:11;;;;;;;8.20;7.40;;;16.10;20.90;;;;;;5055821;28;20216;-65
2022/03/25 12:17:38;;;;;;;7.97;7.00;;;16.10;21.00;;;;;;5056587;28;20220;-64
2022/03/25 12:20:06;;;;;;;10.88;8.68;;;16.10;20.70;;;;;;5056216;28;20239;-64
2022/03/25 12:22:39;;;;;;;11.93;8.50;;;16.10;20.50;;;;;;5056162;28;20196;-65
2022/03/25 12:25:15;;;;;;;11.02;8.85;;;16.20;20.80;;;;;;5056279;28;20220;-65
2022/03/25 12:27:43;;;;;;;13.77;10.82;;;16.30;20.70;;;;;;5057546;28;20244;-65
2022/03/25 12:30:11;;;;;;;13.73;10.05;;;16.30;20.70;;;;;;5056911;28;20291;-64
2022/03/25 12:32:39;;;;;;;14.63;10.77;;;16.30;20.70;;;;;;5056346;28;20189;-64
2022/03/25 12:35:08;;;;;;;12.98;10.15;;;16.40;20.70;;;;;;5056793;28;20259;-65
2022/03/25 12:37:48;;;;;;;11.70;9.23;;;16.40;20.70;;;;;;5056043;28;20267;-65
2022/03/25 12:40:17;;;;;;;11.13;8.98;;;16.40;20.70;;;;;;5055721;28;20192;-65
2022/03/25 12:42:48;;;;;;;12.32;9.70;;;16.40;20.50;;;;;;5055777;28;20181;-64
2022/03/25 12:45:15;;;;;;;16.27;9.85;;;16.40;20.50;;;;;;5054636;28;20624;-63
2022/03/25 12:47:43;;;;;;;14.40;11.13;;;16.40;20.70;;;;;;5056215;28;20634;-64
2022/03/25 12:50:15;;;;;;;13.43;10.13;;;16.50;20.40;;;;;;5057576;28;20704;-63
2022/03/25 12:52:44;;;;;;;12.90;8.95;;;16.40;20.40;;;;;;5059925;28;20656;-63
2022/03/25 12:55:14;;;;;;;9.48;7.80;;;16.40;20.50;;;;;;5059951;28;20228;-64
2022/03/25 12:57:42;;;;;;;13.95;9.20;;;16.40;20.40;;;;;;5065774;28;20227;-67
2022/03/25 13:00:12;;;;;;;13.85;10.55;;;16.40;20.20;;;;;;5061834;28;20232;-66
2022/03/25 13:02:41;;;;;;;11.80;9.35;;;16.40;20.10;;;;;;5061115;28;20192;-66
2022/03/25 13:05:14;;;;;;;13.52;10.23;;;16.40;20.20;;;;;;5059683;28;20203;-64
2022/03/25 13:07:45;;;;;;;13.30;10.45;;;16.40;20.20;;;;;;5059678;28;20243;-66
2022/03/25 13:10:13;;;;;;;15.07;10.90;;;16.40;20.50;;;;;;5060369;28;20193;-67
2022/03/25 13:12:41;;;;;;;14.45;10.75;;;16.40;20.30;;;;;;5059523;28;20215;-67
2022/03/25 13:15:11;;;;;;;12.23;9.48;;;16.40;20.20;;;;;;5059475;28;20211;-68
2022/03/25 13:17:42;;;;;;;10.85;8.10;;;16.40;20.20;;;;;;5059399;28;20686;-68
2022/03/25 13:20:15;;;;;;;11.05;9.10;;;16.40;20.10;;;;;;5059449;28;20178;-65
2022/03/25 13:22:59;;;;;;;13.15;10.40;;;16.40;20.20;;;;;;5059010;28;20543;-65
2022/03/25 13:25:29;;;;;;;9.98;8.35;;;16.40;20.10;;;;;;5057931;28;20185;-65
2022/03/25 13:27:58;;;;;;;8.90;7.03;;;16.30;19.80;;;;;;5056624;28;20281;-65
2022/03/25 13:30:26;;;;;;;8.50;6.82;;;16.30;20.00;;;;;;5056084;28;20598;-66
2022/03/25 13:33:12;;;;;;;10.13;7.95;;;16.30;20.10;;;;;;5056865;28;20212;-64
2022/03/25 13:35:41;;;;;;;11.65;8.98;;;16.40;20.00;;;;;;5056776;28;20201;-65
2022/03/25 13:38:11;;;;;;;11.90;9.35;;;16.40;20.40;;;;;;5055653;28;20224;-66
2022/03/25 13:40:43;;;;;;;13.90;9.80;;;16.50;20.00;;;;;;5056514;28;20287;-66
2022/03/25 13:43:12;;;;;;;14.50;10.00;;;16.50;20.20;;;;;;5054646;28;20262;-66
2022/03/25 13:45:40;;;;;;;13.82;9.57;;;16.50;20.10;;;;;;5054843;28;20212;-66
2022/03/25 13:48:13;;;;;;;18.27;12.07;;;16.50;19.90;;;;;;5054732;28;20307;-66
2022/03/25 13:50:51;;;;;;;12.10;9.45;;;16.40;19.90;;;;;;5054445;28;20185;-66
2022/03/25 13:53:34;;;;;;;15.10;11.13;;;16.40;20.00;;;;;;5054640;28;20200;-65
2022/03/25 13:56:10;;;;;;;14.10;10.18;;;16.40;20.00;;;;;;5055131;28;20687;-65
2022/03/25 13:58:38;;;;;;;12.82;9.18;;;16.40;19.90;;;;;;5054027;28;20734;-65
2022/03/25 14:01:06;;;;;;;11.00;8.68;;;16.40;20.00;;;;;;5054194;28;20205;-65
2022/03/25 14:03:34;;;;;;;10.90;7.75;;;16.50;20.30;;;;;;5054286;28;20238;-66
2022/03/25 14:06:15;;;;;;;10.82;8.45;;;16.60;20.30;;;;;;5054110;28;20254;-66
2022/03/25 14:08:44;;;;;;;8.43;7.57;;;16.60;20.10;;;;;;5054196;28;20274;-66
2022/03/25 14:11:12;;;;;;;12.25;9.25;;;16.60;20.00;;;;;;5053837;28;20210;-66
2022/03/25 14:13:58;;;;;;;9.52;7.63;;;16.60;20.00;;;;;;5053774;28;20231;-66
2022/03/25 14:16:26;;;;;;;7.85;6.13;;;16.60;20.30;;;;;;5053752;28;20221;-65
2022/03/25 14:18:55;;;;;;;8.38;7.53;;;16.60;20.30;;;;;;5053685;28;20594;-66
2022/03/25 14:21:31;;;;;;;13.65;9.30;;;16.70;19.90;;;;;;5053396;28;20660;-65
2022/03/25 14:26:48;;;;;;;12.20;9.85;;;16.60;19.70;;;;;;5053841;28;20184;-66
2022/03/25 14:29:15;;;;;;;17.23;10.95;;;16.60;19.80;;;;;;5053414;28;20679;-65
2022/03/25 14:31:46;;;;;;;15.15;10.85;;;16.50;19.40;;;;;;5053303;28;20225;-66
2022/03/25 14:34:13;;;;;;;13.40;11.25;;;16.50;19.80;;;;;;5053178;28;20608;-65
2022/03/25 14:36:40;;;;;;;14.35;10.57;;;16.50;19.50;;;;;;5053270;28;20205;-64
2022/03/25 14:39:10;;;;;;;9.90;7.85;;;16.40;19.80;;;;;;5053022;28;20299;-65
2022/03/25 14:41:38;;;;;;;8.18;6.93;;;16.40;19.80;;;;;;5053524;28;20226;-64
2022/03/25 14:44:07;;;;;;;6.05;5.55;;;16.40;19.70;;;;;;5053076;28;20663;-65
2022/03/25 14:46:37;;;;;;;13.68;9.68;;;16.50;19.90;;;;;;5052988;28;20200;-65
2022/03/25 14:49:04;;;;;;;16.83;10.45;;;16.50;19.60;;;;;;5053336;28;20200;-65
2022/03/25 14:51:31;;;;;;;16.50;12.13;;;16.50;19.80;;;;;;5053312;28;20287;-65
2022/03/25 14:53:57;;;;;;;13.88;11.30;;;16.50;19.60;;;;;;5053299;28;20644;-66
2022/03/25 14:56:26;;;;;;;11.90;9.05;;;16.50;19.80;;;;;;5053446;28;20226;-64
2022/03/25 14:58:53;;;;;;;13.25;8.80;;;16.50;19.70;;;;;;5053217;28;20224;-64
2022/03/25 15:01:20;;;;;;;10.55;8.40;;;16.50;19.90;;;;;;5052925;28;20247;-65
2022/03/25 15:03:47;;;;;;;10.27;8.57;;;16.60;20.00;;;;;;5053064;28;20200;-65
2022/03/25 15:06:14;;;;;;;10.57;9.05;;;16.60;20.10;;;;;;5052917;28;20200;-66
2022/03/25 15:08:41;;;;;;;8.07;7.20;;;16.60;20.40;;;;;;5054732;28;20256;-65
2022/03/25 15:11:10;;;;;;;16.08;11.93;;;16.70;21.40;;;;;;5057109;28;20710;-65
2022/03/25 15:13:38;;;;;;;15.40;11.50;;;16.60;20.10;;;;;;5058602;28;20254;-66
2022/03/25 15:16:07;;;;;;;11.52;9.48;;;16.60;20.60;;;;;;5058789;28;20247;-66
2022/03/25 15:18:36;;;;;;;17.33;12.88;;;16.60;21.00;;;;;;5058461;28;20216;-66
2022/03/25 15:21:03;;;;;;;13.60;10.82;;;16.50;21.00;;;;;;5057888;28;20200;-65
2022/03/25 15:23:30;;;;;;;13.98;10.35;;;16.50;21.50;;;;;;5057008;28;20203;-65
2022/03/25 15:25:58;;;;;;;18.25;12.40;;;16.40;21.40;;;;;;5056976;28;20231;-65
2022/03/25 15:28:26;;;;;;;15.50;11.52;;;16.30;21.60;;;;;;5056960;28;20587;-65
2022/03/25 15:36:23;;;;;;;14.45;11.68;;;16.00;22.00;;;;;;5056924;28;20219;-65
2022/03/25 15:38:50;;;;;;;20.30;13.65;;;16.00;22.30;;;;;;5056448;28;20319;-65
2022/03/25 15:41:17;;;;;;;18.63;12.95;;;16.00;21.40;;;;;;5056334;28;20288;-65
2022/03/25 15:43:44;;;;;;;21.15;13.20;;;16.00;21.20;;;;;;5056612;28;20250;-65
2022/03/25 15:46:13;;;;;;;15.82;11.10;;;16.00;21.20;;;;;;5056522;28;20203;-65
2022/03/25 15:48:40;;;;;;;14.77;11.00;;;16.00;21.10;;;;;;5056274;28;20248;-65
2022/03/25 15:51:08;;;;;;;13.88;10.63;;;15.90;21.10;;;;;;5057172;28;20201;-65
2022/03/25 15:53:36;;;;;;;14.40;10.75;;;15.90;21.10;;;;;;5056022;28;20250;-67
2022/03/25 15:56:03;;;;;;;18.02;12.48;;;15.90;21.10;;;;;;5056329;28;20673;-68
2022/03/25 15:58:29;;;;;;;18.23;13.35;;;15.80;21.00;;;;;;5056132;28;20733;-68
2022/03/25 16:00:57;;;;;;;17.67;12.82;;;15.80;21.40;;;;;;5056891;28;20180;-67
2022/03/25 16:03:25;;;;;;;19.73;13.57;;;15.80;21.60;;;;;;5057030;28;20203;-68
2022/03/25 16:05:52;;;;;;;17.73;12.43;;;15.70;21.60;;;;;;5056654;28;20610;-68
2022/03/25 16:08:21;;;;;;;17.67;12.90;;;15.70;21.90;;;;;;5056313;28;20217;-68
2022/03/25 16:10:49;;;;;;;20.92;13.82;;;15.70;21.60;;;;;;5056504;28;20234;-69
2022/03/25 16:13:16;;;;;;;19.75;12.93;;;15.60;21.70;;;;;;5056372;28;20208;-69
2022/03/25 16:15:44;;;;;;;28.50;18.27;;;15.60;21.80;;;;;;5058113;28;20252;-69
2022/03/25 16:18:11;;;;;;;22.77;15.52;;;15.60;22.00;;;;;;5059071;28;20224;-69
2022/03/25 16:20:40;;;;;;;20.45;15.00;;;15.50;21.80;;;;;;5056759;28;20224;-69
2022/03/25 16:23:07;;;;;;;20.67;13.30;;;15.50;21.70;;;;;;5058721;28;20730;-69
2022/03/25 16:25:34;;;;;;;16.95;12.23;;;15.50;22.00;;;;;;5057622;28;20269;-68
2022/03/25 16:28:02;;;;;;;13.75;9.88;;;15.40;22.20;;;;;;5057168;28;20255;-69
2022/03/25 16:30:33;;;;;;;13.60;10.57;;;15.30;22.50;;;;;;5057222;28;20628;-68
2022/03/25 16:33:01;;;;;;;14.20;10.95;;;15.30;22.60;;;;;;5057753;28;20189;-68
2022/03/25 16:35:28;;;;;;;15.05;11.65;;;15.20;22.50;;;;;;5058692;28;20244;-69
2022/03/25 16:37:57;;;;;;;16.73;10.65;;;15.10;22.50;;;;;;5057181;28;20278;-67
2022/03/25 16:40:24;;;;;;;14.52;10.05;;;15.10;22.70;;;;;;5055838;28;20259;-67
2022/03/25 16:42:51;;;;;;;14.48;10.05;;;15.00;22.90;;;;;;5055786;28;20613;-67
2022/03/25 16:45:18;;;;;;;14.45;10.65;;;15.00;22.90;;;;;;5055409;28;20192;-68
2022/03/25 16:47:47;;;;;;;14.73;9.68;;;14.90;23.00;;;;;;5055558;28;20235;-67
2022/03/25 16:50:15;;;;;;;13.93;10.15;;;14.90;23.00;;;;;;5055431;28;20197;-67
2022/03/25 16:52:43;;;;;;;15.30;11.13;;;14.90;23.00;;;;;;5055711;28;20246;-66
2022/03/25 16:55:13;;;;;;;14.35;10.00;;;14.80;23.10;;;;;;5055167;28;20201;-65
2022/03/25 16:57:40;;;;;;;16.40;11.75;;;14.70;23.30;;;;;;5055073;28;20313;-65
2022/03/25 17:00:09;;;;;;;19.92;13.52;;;14.70;23.40;;;;;;5055118;28;20220;-65
2022/03/25 17:02:37;;;;;;;17.98;12.65;;;14.60;23.50;;;;;;5055190;28;20201;-65
2022/03/25 17:05:05;;;;;;;18.05;12.35;;;14.60;23.50;;;;;;5055007;28;20201;-68
2022/03/25 17:07:32;;;;;;;16.23;11.25;;;14.60;23.60;;;;;;5055255;28;20303;-66
2022/03/25 17:09:59;;;;;;;22.10;14.32;;;14.50;23.70;;;;;;5054970;28;20228;-67
2022/03/25 17:12:27;;;;;;;20.17;13.60;;;14.40;23.80;;;;;;5054438;28;20759;-66
2022/03/25 17:14:54;;;;;;;17.73;13.05;;;14.40;23.70;;;;;;5054814;28;20197;-66
2022/03/25 17:17:21;;;;;;;18.23;13.00;;;14.40;23.70;;;;;;5054742;28;20256;-67
2022/03/25 17:19:48;;;;;;;16.02;11.75;;;14.30;23.60;;;;;;5054784;28;20228;-66
2022/03/25 17:22:15;;;;;;;17.88;12.60;;;14.20;23.90;;;;;;5054976;28;20201;-66
2022/03/25 17:24:43;;;;;;;19.70;13.52;;;14.20;24.10;;;;;;5055807;28;20258;-66
2022/03/25 17:27:09;;;;;;;23.33;15.00;;;14.10;24.00;;;;;;5054738;28;20722;-66
2022/03/25 17:29:38;;;;;;;20.30;14.38;;;14.10;24.00;;;;;;5055461;28;20201;-66
2022/03/25 17:32:07;;;;;;;16.55;11.30;;;14.10;24.00;;;;;;5056136;28;20196;-65
2022/03/25 17:34:34;;;;;;;12.20;8.95;;;13.90;25.10;;;;;;5055479;28;20283;-65
2022/03/25 17:37:01;;;;;;;11.70;8.80;;;13.70;26.00;;;;;;5054922;28;20231;-66
2022/03/25 17:39:28;;;;;;;9.32;7.43;;;13.50;26.80;;;;;;5055287;28;20580;-66
2022/03/25 17:41:56;;;;;;;8.43;6.60;;;13.20;27.50;;;;;;5057497;28;20205;-63
2022/03/25 17:44:24;;;;;;;7.63;5.90;;;13.00;27.90;;;;;;5057044;28;20201;-67
2022/03/25 17:46:52;;;;;;;6.65;5.97;;;12.70;29.00;;;;;;5055648;28;20212;-67
2022/03/25 17:49:19;;;;;;;8.10;6.07;;;12.50;28.10;;;;;;5055661;28;20211;-67
2022/03/25 17:51:46;;;;;;;5.93;5.30;;;12.30;28.70;;;;;;5055710;28;20249;-67
2022/03/25 17:54:13;;;;;;;4.72;4.32;;;12.10;29.80;;;;;;5054908;28;20201;-66
2022/03/25 17:56:40;;;;;;;4.82;4.35;;;11.80;30.00;;;;;;5055952;28;20208;-66
2022/03/25 17:59:08;;;;;;;3.78;3.47;;;11.60;30.40;;;;;;5055215;28;20626;-66
2022/03/25 18:01:35;;;;;;;3.75;3.40;;;11.40;30.20;;;;;;5055508;28;20185;-65
2022/03/25 18:04:05;;;;;;;3.58;3.38;;;11.20;31.20;;;;;;5055140;28;20690;-66
2022/03/25 18:06:32;;;;;;;2.80;2.70;;;10.90;31.90;;;;;;5055517;28;20192;-64
2022/03/25 18:09:00;;;;;;;3.28;3.08;;;10.70;32.40;;;;;;5054439;28;20215;-63
2022/03/25 18:11:27;;;;;;;2.72;2.55;;;10.50;33.20;;;;;;5054159;28;20640;-62
2022/03/25 18:13:53;;;;;;;2.55;2.35;;;10.30;33.60;;;;;;5053789;28;20226;-65
2022/03/25 18:16:20;;;;;;;3.00;2.80;;;10.10;34.10;;;;;;5054242;28;20295;-65
2022/03/25 18:18:48;;;;;;;2.30;2.20;;;9.90;35.60;;;;;;5053836;28;20263;-65
2022/03/25 18:21:16;;;;;;;3.28;3.00;;;9.80;36.50;;;;;;5053817;28;20658;-65
2022/03/25 18:23:43;;;;;;;2.95;2.75;;;9.70;37.10;;;;;;5054027;28;20196;-65
2022/03/25 18:26:11;;;;;;;3.20;2.90;;;9.50;37.70;;;;;;5053962;28;20233;-66
2022/03/25 18:28:38;;;;;;;3.22;2.95;;;9.40;38.50;;;;;;5053347;28;20652;-66
2022/03/25 18:31:05;;;;;;;3.60;2.92;;;9.10;39.20;;;;;;5053461;28;20196;-65
2022/03/25 18:33:32;;;;;;;2.83;2.63;;;9.00;39.20;;;;;;5053320;28;20250;-63
2022/03/25 18:35:59;;;;;;;2.90;2.70;;;8.90;40.40;;;;;;5053324;28;20580;-63
2022/03/25 18:38:28;;;;;;;2.65;2.50;;;8.80;41.10;;;;;;5053444;28;20235;-65
2022/03/25 18:40:55;;;;;;;2.83;2.63;;;8.70;41.70;;;;;;5054282;28;20201;-66
2022/03/25 18:43:22;;;;;;;2.65;2.45;;;8.60;42.60;;;;;;5052531;28;20204;-66
2022/03/25 18:45:51;;;;;;;2.80;2.60;;;8.50;43.20;;;;;;5053623;28;20247;-66
2022/03/25 18:48:18;;;;;;;3.40;3.08;;;8.40;44.00;;;;;;5053893;28;20220;-66
2022/03/25 18:50:45;;;;;;;3.33;3.05;;;8.30;45.00;;;;;;5053399;28;20287;-66
2022/03/25 18:53:12;;;;;;;2.70;2.50;;;8.20;46.00;;;;;;5053627;28;20200;-66
2022/03/25 18:55:40;;;;;;;2.65;2.45;;;8.20;46.60;;;;;;5053878;28;20283;-65
2022/03/25 18:58:07;;;;;;;2.58;2.38;;;8.10;41.60;;;;;;5053404;28;20360;-65
2022/03/25 19:00:34;;;;;;;3.33;3.03;;;7.90;41.00;;;;;;5053427;28;20204;-66
2022/03/25 19:03:01;;;;;;;3.42;3.20;;;7.90;42.20;;;;;;5053822;28;20247;-66
2022/03/25 19:05:28;;;;;;;3.00;2.80;;;7.80;43.00;;;;;;5053900;28;20205;-66
2022/03/25 19:07:57;;;;;;;2.80;2.60;;;7.70;43.20;;;;;;5054272;28;20263;-66
2022/03/25 19:10:24;;;;;;;2.72;2.63;;;7.60;44.30;;;;;;5053574;28;20212;-64
2022/03/25 19:12:52;;;;;;;2.88;2.67;;;7.60;45.00;;;;;;5053513;28;20207;-66
2022/03/25 19:15:19;;;;;;;2.55;2.35;;;7.50;46.50;;;;;;5053376;28;20235;-67
2022/03/25 19:17:46;;;;;;;2.60;2.40;;;7.50;46.20;;;;;;5052796;28;20675;-67
2022/03/25 19:20:15;;;;;;;2.65;2.45;;;7.40;47.50;;;;;;5053855;28;20380;-66
2022/03/25 19:22:43;;;;;;;3.38;3.08;;;7.30;48.70;;;;;;5053886;28;20564;-66
2022/03/25 19:25:10;;;;;;;2.58;2.38;;;7.30;49.30;;;;;;5053942;28;20200;-66
2022/03/25 19:27:37;;;;;;;3.10;2.90;;;7.20;50.40;;;;;;5055335;28;20584;-66
2022/03/25 19:30:09;;;;;;;3.92;3.35;;;7.10;50.70;;;;;;5055393;28;20204;-66
2022/03/25 19:32:36;;;;;;;3.28;2.97;;;7.10;51.00;;;;;;5055718;28;20188;-65
2022/03/25 19:35:03;;;;;;;3.28;2.95;;;7.00;51.20;;;;;;5055125;28;20224;-65